createdAt,value
2019-01-04T00:01:06.876Z,15.33
2019-01-04T00:03:48.023Z,16.50
2019-01-04T00:06:28.160Z,18.23
2019-01-04T00:09:09.528Z,19.30
2019-01-04T00:11:49.853Z,22.70
2019-01-04T00:14:30.833Z,24.13
2019-01-04T00:17:11.425Z,25.93
2019-01-04T00:19:52.709Z,27.70
2019-01-04T00:22:33.862Z,29.97
2019-01-04T00:25:14.296Z,31.37
2019-01-04T00:27:55.589Z,35.43
2019-01-04T00:30:35.707Z,38.23
2019-01-04T00:33:16.796Z,38.93
2019-01-04T00:35:57.825Z,40.43
2019-01-04T00:38:38.724Z,41.07
2019-01-04T00:41:19.750Z,42.97
2019-01-04T00:44:00.192Z,45.80
2019-01-04T00:46:41.161Z,49.63
2019-01-04T00:49:21.990Z,52.53
2019-01-04T00:52:02.804Z,53.00
2019-01-04T00:58:02.516Z,56.77
2019-01-04T01:00:42.953Z,58.23
2019-01-04T01:03:23.677Z,62.03
2019-01-04T01:12:17.369Z,68.00
2019-01-04T01:15:17.416Z,68.73
2019-01-04T01:17:57.881Z,69.23
2019-01-04T01:20:38.892Z,72.63
2019-01-04T01:23:19.588Z,74.27
2019-01-04T01:29:05.548Z,79.00
2019-01-04T01:31:46.418Z,81.80
2019-01-04T01:34:54.980Z,81.77
2019-01-04T01:44:57.741Z,87.87
2019-01-04T01:51:35.063Z,91.33
2019-01-04T01:54:22.729Z,93.43
2019-01-04T01:57:10.403Z,90.70
2019-01-04T01:59:58.080Z,93.77
2019-01-04T02:02:45.740Z,94.47
2019-01-04T02:05:33.437Z,95.97
2019-01-04T02:08:14.385Z,96.70
2019-01-04T02:10:55.132Z,93.93
2019-01-04T02:13:36.018Z,93.23
2019-01-04T02:16:16.928Z,93.17
2019-01-04T02:18:57.815Z,93.93
2019-01-04T02:21:39.405Z,92.20
2019-01-04T02:24:19.633Z,94.30
2019-01-04T02:27:00.096Z,93.70
2019-01-04T02:29:41.056Z,90.90
2019-01-04T02:32:22.186Z,94.27
2019-01-04T02:35:03.333Z,96.37
2019-01-04T02:40:26.223Z,98.07
2019-01-04T02:43:07.125Z,94.10
2019-01-04T02:45:47.865Z,92.23
2019-01-04T02:48:28.872Z,97.93
2019-01-04T02:51:09.076Z,94.57
2019-01-04T02:53:49.916Z,99.07
2019-01-04T02:56:31.005Z,100.83
2019-01-04T02:59:12.414Z,95.50
2019-01-04T03:01:53.388Z,96.93
2019-01-04T03:04:33.655Z,97.20
2019-01-04T03:07:13.865Z,98.40
2019-01-04T03:09:54.944Z,95.17
2019-01-04T03:12:36.045Z,91.60
2019-01-04T03:15:17.062Z,95.33
2019-01-04T03:17:58.028Z,92.60
2019-01-04T03:20:38.625Z,91.57
2019-01-04T03:23:19.694Z,85.33
2019-01-04T03:26:00.509Z,82.70
2019-01-04T03:28:41.389Z,86.60
2019-01-04T03:31:22.169Z,86.27
2019-01-04T03:34:03.552Z,87.53
2019-01-04T03:36:44.106Z,88.00
2019-01-04T03:39:25.065Z,81.00
2019-01-04T03:42:05.220Z,82.63
2019-01-04T03:44:46.564Z,79.33
2019-01-04T03:47:27.248Z,78.83
2019-01-04T03:50:07.554Z,75.97
2019-01-04T03:52:48.445Z,74.30
2019-01-04T03:55:29.610Z,67.23
2019-01-04T03:58:10.405Z,70.80
2019-01-04T04:00:51.266Z,72.73
2019-01-04T04:03:32.444Z,67.87
2019-01-04T04:06:13.256Z,63.80
2019-01-04T04:08:54.220Z,63.03
2019-01-04T04:11:35.329Z,63.17
2019-01-04T04:14:16.357Z,59.50
2019-01-04T04:16:56.747Z,58.40
2019-01-04T04:19:37.658Z,60.50
2019-01-04T04:22:18.711Z,56.13
2019-01-04T04:24:59.733Z,56.27
2019-01-04T04:27:40.603Z,48.60
2019-01-04T04:30:21.433Z,50.90
2019-01-04T04:33:01.820Z,49.67
2019-01-04T04:35:42.998Z,49.83
2019-01-04T04:38:23.669Z,48.03
2019-01-04T04:41:04.004Z,45.53
2019-01-04T04:43:44.705Z,43.30
2019-01-04T04:46:25.920Z,45.73
2019-01-04T04:49:06.632Z,38.23
2019-01-04T04:51:47.168Z,41.20
2019-01-04T04:54:27.969Z,39.50
2019-01-04T04:57:08.804Z,38.13
2019-01-04T04:59:49.928Z,36.53
2019-01-04T05:02:30.741Z,36.07
2019-01-04T05:05:11.773Z,36.10
2019-01-04T05:07:52.864Z,33.00
2019-01-04T05:10:33.621Z,33.10
2019-01-04T05:13:14.191Z,32.13
2019-01-04T05:15:55.077Z,31.60
2019-01-04T05:18:35.883Z,30.07
2019-01-04T05:21:16.662Z,28.57
2019-01-04T05:23:57.133Z,28.47
2019-01-04T05:26:37.752Z,26.87
2019-01-04T05:29:18.417Z,25.17
2019-01-04T05:31:58.834Z,25.50
2019-01-04T05:34:39.776Z,25.00
2019-01-04T05:37:20.742Z,23.23
2019-01-04T05:40:00.954Z,23.03
2019-01-04T05:42:42.085Z,21.47
2019-01-04T05:45:23.300Z,19.87
2019-01-04T05:48:04.277Z,19.83
2019-01-04T05:50:45.098Z,18.23
2019-01-04T05:53:26.191Z,18.13
2019-01-04T05:56:06.549Z,16.30
2019-01-04T05:58:47.372Z,15.80
2019-01-04T06:01:28.345Z,15.00
2019-01-04T06:04:08.818Z,13.90
2019-01-04T06:06:49.909Z,14.63
2019-01-04T06:09:30.719Z,13.10
2019-01-04T06:12:11.732Z,12.77
2019-01-04T06:14:52.265Z,11.67
2019-01-04T06:17:32.794Z,11.63
2019-01-04T06:20:13.627Z,11.67
2019-01-04T06:22:54.964Z,10.73
2019-01-04T06:25:35.527Z,9.70
2019-01-04T06:28:16.380Z,9.30
2019-01-04T06:30:56.938Z,8.93
2019-01-04T06:33:37.194Z,8.13
2019-01-04T06:36:18.221Z,8.30
2019-01-04T06:38:58.598Z,7.53
2019-01-04T06:41:39.218Z,7.00
2019-01-04T06:44:17.923Z,6.83
2019-01-04T06:47:26.415Z,6.63
2019-01-04T06:50:14.094Z,6.30
2019-01-04T06:53:01.814Z,6.13
2019-01-04T06:56:10.296Z,5.30
2019-01-04T06:58:57.964Z,5.20
2019-01-04T07:01:45.660Z,5.07
2019-01-04T07:04:33.308Z,5.03
2019-01-04T07:07:20.998Z,4.50
2019-01-04T07:10:09.033Z,4.63
2019-01-04T07:12:56.711Z,4.23
2019-01-04T07:15:44.376Z,4.30
2019-01-04T07:18:32.078Z,3.83
2019-01-04T07:21:19.773Z,3.80
2019-01-04T07:24:07.471Z,3.37
2019-01-04T07:26:55.245Z,3.20
2019-01-04T07:29:42.965Z,3.40
2019-01-04T07:32:23.819Z,2.87
2019-01-04T07:35:04.931Z,3.03
2019-01-04T07:37:45.848Z,2.70
2019-01-04T07:40:26.716Z,2.80
2019-01-04T07:43:07.871Z,2.67
2019-01-04T07:45:48.580Z,2.60
2019-01-04T07:48:29.606Z,2.60
2019-01-04T07:51:10.523Z,2.50
2019-01-04T07:53:51.482Z,2.53
2019-01-04T07:56:31.851Z,2.50
2019-01-04T07:59:12.933Z,2.43
2019-01-04T08:01:53.485Z,1.97
2019-01-04T08:04:33.865Z,2.50
2019-01-04T08:07:14.594Z,2.13
2019-01-04T08:09:55.046Z,2.00
2019-01-04T08:12:35.784Z,2.13
2019-01-04T08:15:17.142Z,1.97
2019-01-04T08:17:57.931Z,1.80
2019-01-04T08:20:39.056Z,2.00
2019-01-04T08:23:19.936Z,1.90
2019-01-04T08:26:00.962Z,1.87
2019-01-04T08:28:41.940Z,1.93
2019-01-04T08:31:22.684Z,2.00
2019-01-04T08:34:03.132Z,2.10
2019-01-04T08:36:43.738Z,1.70
2019-01-04T08:39:24.662Z,1.70
2019-01-04T08:42:05.564Z,1.70
2019-01-04T08:44:46.325Z,1.63
2019-01-04T08:47:27.097Z,1.80
2019-01-04T08:50:08.068Z,1.97
2019-01-04T08:52:48.904Z,1.50
2019-01-04T08:55:29.637Z,1.77
2019-01-04T08:58:10.601Z,1.60
2019-01-04T09:00:49.276Z,1.43
2019-01-04T09:03:36.928Z,1.40
2019-01-04T09:06:24.614Z,1.40
2019-01-04T09:09:12.540Z,1.50
2019-01-04T09:12:00.488Z,1.70
2019-01-04T09:14:48.165Z,2.37
2019-01-04T09:17:35.829Z,1.20
2019-01-04T09:20:23.501Z,1.43
2019-01-04T09:27:13.041Z,1.50
2019-01-04T09:30:01.009Z,1.53
2019-01-04T09:32:48.656Z,1.50
2019-01-04T09:35:36.331Z,1.50
2019-01-04T09:38:24.012Z,1.50
2019-01-04T09:41:33.641Z,1.50
2019-01-04T09:44:14.576Z,1.50
2019-01-04T09:46:55.144Z,2.17
2019-01-04T09:49:55.372Z,3.13
2019-01-04T09:52:36.237Z,1.90
2019-01-04T09:55:17.249Z,1.70
2019-01-04T09:57:58.164Z,1.30
2019-01-04T10:00:39.168Z,1.50
2019-01-04T10:03:20.192Z,2.43
2019-01-04T10:06:01.166Z,1.33
2019-01-04T10:08:45.026Z,1.60
2019-01-04T10:11:24.402Z,5.43
2019-01-04T10:14:05.376Z,1.97
2019-01-04T10:16:46.556Z,2.30
2019-01-04T10:19:27.320Z,2.87
2019-01-04T10:22:07.741Z,1.93
2019-01-04T10:24:48.916Z,1.80
2019-01-04T10:27:29.688Z,1.77
2019-01-04T10:30:10.801Z,1.93
2019-01-04T10:32:51.838Z,1.60
2019-01-04T10:35:52.132Z,3.37
2019-01-04T10:38:32.716Z,1.87
2019-01-04T10:41:13.472Z,1.93
2019-01-04T10:50:21.120Z,1.93
2019-01-04T10:53:02.211Z,2.87
2019-01-04T10:55:43.140Z,4.40
2019-01-04T10:58:24.272Z,1.97
2019-01-04T11:04:10.949Z,3.23
2019-01-04T11:06:52.048Z,2.33
2019-01-04T11:12:38.321Z,2.03
2019-01-04T11:18:38.641Z,2.23
2019-01-04T11:24:38.467Z,1.63
2019-01-04T11:27:19.337Z,1.97
2019-01-04T11:30:00.194Z,2.60
2019-01-04T11:32:41.324Z,3.30
2019-01-04T11:35:22.428Z,2.40
2019-01-04T11:38:03.149Z,2.43
2019-01-04T11:40:43.388Z,2.07
2019-01-04T11:43:23.685Z,2.57
2019-01-04T11:46:04.535Z,1.97
2019-01-04T11:48:45.400Z,3.23
2019-01-04T11:51:26.897Z,1.63
2019-01-04T11:54:07.765Z,1.80
2019-01-04T11:56:48.540Z,2.53
2019-01-04T11:59:29.363Z,1.90
2019-01-04T12:02:09.941Z,2.17
2019-01-04T12:04:51.291Z,3.27
2019-01-04T12:07:31.753Z,2.03
2019-01-04T12:10:12.081Z,3.10
2019-01-04T12:12:52.818Z,3.83
2019-01-04T12:15:33.876Z,2.70
2019-01-04T12:18:15.199Z,3.27
2019-01-04T12:20:55.863Z,3.40
2019-01-04T12:23:36.930Z,2.53
2019-01-04T12:26:17.127Z,2.20
2019-01-04T12:28:55.744Z,2.70
2019-01-04T12:31:43.407Z,1.97
2019-01-04T12:34:24.709Z,4.10
2019-01-04T12:37:05.668Z,5.07
2019-01-04T12:39:46.726Z,6.20
2019-01-04T12:42:27.509Z,4.60
2019-01-04T12:45:08.774Z,5.13
2019-01-04T12:47:49.300Z,9.67
2019-01-04T12:50:30.231Z,5.63
2019-01-04T12:53:11.184Z,11.17
2019-01-04T12:55:39.419Z,9.87
2019-01-04T12:58:27.126Z,6.00
2019-01-04T13:01:14.805Z,16.13
2019-01-04T13:04:02.541Z,6.50
2019-01-04T13:06:50.213Z,5.57
2019-01-04T13:09:37.892Z,8.13
2019-01-04T13:12:25.570Z,8.53
2019-01-04T13:15:13.228Z,5.97
2019-01-04T13:18:00.888Z,10.93
2019-01-04T13:20:48.567Z,10.30
2019-01-04T13:23:36.231Z,11.80
2019-01-04T13:26:23.899Z,11.20
2019-01-04T13:29:11.890Z,11.80
2019-01-04T13:31:59.580Z,20.90
2019-01-04T13:34:47.565Z,16.07
2019-01-04T13:37:35.216Z,17.77
2019-01-04T13:40:22.892Z,17.90
2019-01-04T13:43:10.585Z,17.67
2019-01-04T13:49:05.047Z,15.40
2019-01-04T13:51:52.829Z,16.40
2019-01-04T13:54:33.313Z,19.47
2019-01-04T13:57:14.200Z,16.07
2019-01-04T13:59:55.225Z,15.47
2019-01-04T14:02:35.935Z,13.00
2019-01-04T14:05:16.238Z,13.20
2019-01-04T14:07:56.612Z,18.73
2019-01-04T14:10:37.349Z,18.73
2019-01-04T14:13:18.430Z,20.77
2019-01-04T14:15:58.926Z,29.10
2019-01-04T14:18:39.462Z,18.17
2019-01-04T14:21:18.138Z,19.40
2019-01-04T14:24:05.807Z,22.07
2019-01-04T14:26:53.490Z,25.43
2019-01-04T14:29:41.166Z,23.43
2019-01-04T14:32:28.848Z,23.43
2019-01-04T14:35:09.682Z,24.87
2019-01-04T14:37:50.480Z,25.43
2019-01-04T14:40:31.813Z,27.30
2019-01-04T14:43:12.772Z,25.77
2019-01-04T14:45:53.708Z,19.97
2019-01-04T14:48:34.535Z,35.10
2019-01-04T14:51:15.545Z,34.40
2019-01-04T14:53:56.552Z,36.70
2019-01-04T14:56:37.209Z,32.40
2019-01-04T14:59:18.148Z,53.03
2019-01-04T15:01:59.129Z,31.67
2019-01-04T15:04:39.932Z,36.45
2019-01-04T15:07:21.304Z,43.43
2019-01-04T15:10:01.969Z,35.20
2019-01-04T15:12:42.994Z,36.03
2019-01-04T15:15:23.291Z,26.45
2019-01-04T15:18:01.945Z,39.63
2019-01-04T15:20:49.613Z,48.50
2019-01-04T15:23:37.292Z,30.45
2019-01-04T15:26:24.947Z,30.92
2019-01-04T15:29:12.929Z,25.43
2019-01-04T15:32:00.622Z,27.87
2019-01-04T15:34:48.325Z,33.15
2019-01-04T15:37:35.989Z,41.97
2019-01-04T15:40:23.719Z,28.32
2019-01-04T15:43:11.386Z,36.85
2019-01-04T15:46:36.278Z,35.03
2019-01-04T15:49:24.088Z,40.30
2019-01-04T15:52:19.543Z,43.87
2019-01-04T15:55:07.244Z,40.17
2019-01-04T15:57:54.938Z,84.90
2019-01-04T16:00:42.940Z,48.60
2019-01-04T16:03:30.655Z,37.37
2019-01-04T16:06:18.312Z,39.77
2019-01-04T16:12:12.942Z,44.00
2019-01-04T16:15:00.626Z,44.70
2019-01-04T16:17:48.270Z,53.50
2019-01-04T16:20:36.040Z,38.00
2019-01-04T16:23:23.691Z,54.37
2019-01-04T16:26:11.373Z,52.33
2019-01-04T16:28:59.104Z,49.50
2019-01-04T16:31:46.783Z,54.50
2019-01-04T16:34:34.451Z,66.53
2019-01-04T16:37:22.137Z,71.53
2019-01-04T16:40:09.788Z,51.23
2019-01-04T16:42:57.468Z,52.13
2019-01-04T16:45:45.157Z,49.13
2019-01-04T16:48:32.816Z,70.83
2019-01-04T16:51:20.503Z,49.37
2019-01-04T16:54:08.162Z,57.33
2019-01-04T16:56:55.844Z,103.60
2019-01-04T16:59:43.598Z,59.17
2019-01-04T17:02:31.276Z,99.70
2019-01-04T17:05:18.940Z,69.17
2019-01-04T17:11:05.388Z,69.40
2019-01-04T17:13:53.064Z,80.37
2019-01-04T17:16:40.791Z,63.87
2019-01-04T17:22:22.330Z,52.30
2019-01-04T17:25:09.976Z,51.87
2019-01-04T17:27:57.702Z,56.17
2019-01-04T17:30:45.861Z,55.87
2019-01-04T17:33:33.523Z,37.70
2019-01-04T17:36:21.197Z,81.57
2019-01-04T17:39:09.032Z,105.40
2019-01-04T17:41:56.713Z,124.07
2019-01-04T17:44:37.461Z,148.13
2019-01-04T17:47:17.873Z,102.27
2019-01-04T17:49:58.425Z,138.87
2019-01-04T17:52:38.633Z,127.03
2019-01-04T17:55:19.919Z,102.07
2019-01-04T17:58:00.694Z,123.93
2019-01-04T18:00:40.881Z,99.97
2019-01-04T18:03:21.285Z,125.33
2019-01-04T18:06:02.301Z,101.83
2019-01-04T18:08:42.666Z,74.27
2019-01-04T18:11:23.659Z,75.43
2019-01-04T18:14:04.644Z,117.57
2019-01-04T18:16:45.728Z,83.40
2019-01-04T18:19:26.511Z,99.80
2019-01-04T18:22:06.730Z,76.00
2019-01-04T18:24:47.761Z,85.53
2019-01-04T18:27:28.093Z,108.70
2019-01-04T18:30:07.848Z,92.43
2019-01-04T18:32:56.292Z,110.13
2019-01-04T18:35:44.952Z,69.87
2019-01-04T18:38:32.664Z,63.50
2019-01-04T18:41:20.322Z,62.37
2019-01-04T18:44:07.992Z,99.97
2019-01-04T18:46:55.683Z,95.73
2019-01-04T18:49:43.420Z,96.80
2019-01-04T18:52:31.106Z,90.87
2019-01-04T18:55:18.786Z,112.60
2019-01-04T18:58:06.533Z,72.40
2019-01-04T19:06:48.344Z,69.07
2019-01-04T19:09:29.161Z,59.03
2019-01-04T19:12:10.140Z,54.80
2019-01-04T19:14:50.801Z,57.87
2019-01-04T19:17:31.843Z,46.57
2019-01-04T19:20:12.964Z,53.77
2019-01-04T19:22:53.990Z,39.53
2019-01-04T19:25:34.786Z,51.17
2019-01-04T19:28:15.148Z,43.00
2019-01-04T19:30:55.984Z,37.00
2019-01-04T19:33:36.744Z,34.60
2019-01-04T19:36:17.767Z,39.23
2019-01-04T19:38:57.909Z,38.27
2019-01-04T19:41:38.717Z,44.43
2019-01-04T19:44:20.068Z,38.63
2019-01-04T19:47:00.881Z,37.07
2019-01-04T19:49:41.975Z,36.80
2019-01-04T19:52:22.164Z,40.13
2019-01-04T19:55:02.365Z,31.13
2019-01-04T19:57:43.197Z,32.07
2019-01-04T20:00:23.477Z,28.33
2019-01-04T20:03:04.433Z,29.60
2019-01-04T20:05:46.381Z,32.53
2019-01-04T20:08:46.745Z,22.13
2019-01-04T20:11:29.452Z,24.70
2019-01-04T20:14:29.721Z,29.77
2019-01-04T20:20:18.961Z,23.00
2019-01-04T20:23:19.253Z,24.57
2019-01-04T20:26:03.772Z,26.40
2019-01-04T20:28:45.693Z,22.30
2019-01-04T20:31:36.443Z,24.27
2019-01-04T20:34:15.401Z,23.47
2019-01-04T20:36:59.884Z,19.37
2019-01-04T20:39:59.337Z,21.47
2019-01-04T20:42:58.949Z,17.37
2019-01-04T20:45:58.940Z,21.87
2019-01-04T20:51:50.295Z,17.27
2019-01-04T20:54:50.280Z,18.97
2019-01-04T20:57:50.101Z,17.13
2019-01-04T21:00:32.470Z,15.87
2019-01-04T21:03:32.105Z,15.03
2019-01-04T21:06:32.513Z,14.33
2019-01-04T21:09:32.734Z,15.87
2019-01-04T21:12:32.992Z,16.50
2019-01-04T21:15:32.404Z,13.93
2019-01-04T21:18:14.779Z,16.87
2019-01-04T21:21:00.145Z,23.13
2019-01-04T21:23:42.236Z,16.83
2019-01-04T21:26:24.396Z,14.73
2019-01-04T21:34:56.021Z,14.20
2019-01-04T21:37:41.568Z,21.67
2019-01-04T21:40:27.345Z,13.43
2019-01-04T21:43:26.967Z,13.67
2019-01-04T21:46:26.927Z,11.53
2019-01-04T21:52:20.284Z,12.33
2019-01-04T21:54:59.208Z,14.93
2019-01-04T21:57:47.184Z,12.50
2019-01-04T22:00:35.237Z,16.83
2019-01-04T22:03:14.060Z,11.53
2019-01-04T22:06:00.204Z,11.47
2019-01-04T22:08:33.022Z,12.93
2019-01-04T22:11:19.261Z,13.07
2019-01-04T22:14:04.480Z,11.47
2019-01-04T22:16:42.941Z,13.13
2019-01-04T22:19:21.233Z,12.83
2019-01-04T22:22:07.568Z,12.13
2019-01-04T22:24:52.308Z,10.93
2019-01-04T22:27:34.041Z,9.63
2019-01-04T22:30:15.984Z,10.33
2019-01-04T22:32:48.513Z,11.10
2019-01-04T22:35:21.325Z,9.37
2019-01-04T22:38:09.258Z,8.67
2019-01-04T22:40:55.426Z,10.03
2019-01-04T22:43:31.244Z,10.40
2019-01-04T22:46:03.761Z,7.87
2019-01-04T22:48:51.896Z,9.57
2019-01-04T22:51:36.626Z,9.00
2019-01-04T22:54:12.475Z,8.43
2019-01-04T22:56:51.121Z,7.20
2019-01-04T22:59:37.049Z,7.97
2019-01-04T23:02:18.921Z,7.00
2019-01-04T23:05:06.981Z,7.37
2019-01-04T23:07:39.464Z,7.03
2019-01-04T23:10:25.516Z,7.17
2019-01-04T23:12:55.637Z,8.03
2019-01-04T23:15:37.464Z,9.00
2019-01-04T23:18:23.389Z,7.53
2019-01-04T23:20:53.262Z,6.60
2019-01-04T23:23:23.117Z,8.40
2019-01-04T23:26:05.045Z,8.67
2019-01-04T23:28:34.909Z,6.93
2019-01-04T23:31:07.663Z,7.00
2019-01-04T23:33:55.664Z,7.70
2019-01-04T23:36:41.640Z,7.07
2019-01-04T23:39:11.632Z,8.57
2019-01-04T23:41:56.330Z,6.73
2019-01-04T23:44:28.977Z,6.33
2019-01-04T23:47:15.079Z,7.97
2019-01-04T23:50:01.084Z,7.23
2019-01-04T23:52:47.196Z,6.13
2019-01-04T23:55:26.240Z,8.43
2019-01-04T23:58:11.871Z,8.77
